sensor_id;sensor_type;location;lat;lon;timestamp;temperature;humidity
16846;DHT22;8539;53.188;8.696;2023-07-24T00:00:57;18.40;99.90
16846;DHT22;8539;53.188;8.696;2023-07-24T00:03:24;18.40;99.90
16846;DHT22;8539;53.188;8.696;2023-07-24T00:05:50;18.40;99.90
16846;DHT22;8539;53.188;8.696;2023-07-24T00:08:17;18.40;99.90
16846;DHT22;8539;53.188;8.696;2023-07-24T00:10:47;18.40;99.90
16846;DHT22;8539;53.188;8.696;2023-07-24T00:13:14;18.40;99.90
16846;DHT22;8539;53.188;8.696;2023-07-24T00:15:40;18.40;99.90
16846;DHT22;8539;53.188;8.696;2023-07-24T00:18:08;18.40;99.90
16846;DHT22;8539;53.188;8.696;2023-07-24T00:20:35;18.30;99.90
16846;DHT22;8539;53.188;8.696;2023-07-24T00:23:02;18.30;99.90
16846;DHT22;8539;53.188;8.696;2023-07-24T00:25:28;18.30;99.90
16846;DHT22;8539;53.188;8.696;2023-07-24T00:27:54;18.30;99.90
16846;DHT22;8539;53.188;8.696;2023-07-24T00:30:20;18.30;99.90
16846;DHT22;8539;53.188;8.696;2023-07-24T00:32:46;18.30;99.90
16846;DHT22;8539;53.188;8.696;2023-07-24T00:35:12;18.30;99.90
16846;DHT22;8539;53.188;8.696;2023-07-24T00:37:40;18.30;99.90
16846;DHT22;8539;53.188;8.696;2023-07-24T00:40:06;18.20;99.90
16846;DHT22;8539;53.188;8.696;2023-07-24T00:42:33;18.30;99.90
16846;DHT22;8539;53.188;8.696;2023-07-24T00:44:59;18.30;99.90
16846;DHT22;8539;53.188;8.696;2023-07-24T00:47:26;18.20;99.90
16846;DHT22;8539;53.188;8.696;2023-07-24T00:49:54;18.20;99.90
16846;DHT22;8539;53.188;8.696;2023-07-24T00:52:20;18.20;99.90
16846;DHT22;8539;53.188;8.696;2023-07-24T00:54:47;18.10;99.90
16846;DHT22;8539;53.188;8.696;2023-07-24T00:57:14;18.20;99.90
16846;DHT22;8539;53.188;8.696;2023-07-24T00:59:41;18.20;99.90
16846;DHT22;8539;53.188;8.696;2023-07-24T01:02:08;18.10;99.90
16846;DHT22;8539;53.188;8.696;2023-07-24T01:04:34;18.10;99.90
16846;DHT22;8539;53.188;8.696;2023-07-24T01:07:00;18.10;99.90
16846;DHT22;8539;53.188;8.696;2023-07-24T01:09:26;18.10;99.90
16846;DHT22;8539;53.188;8.696;2023-07-24T01:11:58;18.00;99.90
16846;DHT22;8539;53.188;8.696;2023-07-24T01:17:06;18.10;99.90
16846;DHT22;8539;53.188;8.696;2023-07-24T01:19:41;18.10;99.90
16846;DHT22;8539;53.188;8.696;2023-07-24T01:22:27;18.00;99.90
16846;DHT22;8539;53.188;8.696;2023-07-24T01:25:18;18.00;99.90
16846;DHT22;8539;53.188;8.696;2023-07-24T01:27:45;18.00;99.90
16846;DHT22;8539;53.188;8.696;2023-07-24T01:30:16;18.00;99.90
16846;DHT22;8539;53.188;8.696;2023-07-24T01:32:42;18.00;99.90
16846;DHT22;8539;53.188;8.696;2023-07-24T01:35:09;18.00;99.90
16846;DHT22;8539;53.188;8.696;2023-07-24T01:37:36;18.00;99.90
16846;DHT22;8539;53.188;8.696;2023-07-24T01:40:06;18.00;99.90
16846;DHT22;8539;53.188;8.696;2023-07-24T01:42:34;18.00;99.90
16846;DHT22;8539;53.188;8.696;2023-07-24T01:45:01;18.10;99.90
16846;DHT22;8539;53.188;8.696;2023-07-24T01:47:27;18.10;99.90
16846;DHT22;8539;53.188;8.696;2023-07-24T01:49:53;18.00;99.90
16846;DHT22;8539;53.188;8.696;2023-07-24T01:52:20;18.00;99.90
16846;DHT22;8539;53.188;8.696;2023-07-24T01:54:46;18.00;99.90
16846;DHT22;8539;53.188;8.696;2023-07-24T01:57:12;18.00;99.90
16846;DHT22;8539;53.188;8.696;2023-07-24T01:59:38;18.00;99.90
16846;DHT22;8539;53.188;8.696;2023-07-24T02:02:04;18.00;99.90
16846;DHT22;8539;53.188;8.696;2023-07-24T02:04:30;18.00;99.90
16846;DHT22;8539;53.188;8.696;2023-07-24T02:06:56;18.00;99.90
16846;DHT22;8539;53.188;8.696;2023-07-24T02:09:22;18.00;99.90
16846;DHT22;8539;53.188;8.696;2023-07-24T02:11:48;18.00;99.90
16846;DHT22;8539;53.188;8.696;2023-07-24T02:14:15;17.90;99.90
16846;DHT22;8539;53.188;8.696;2023-07-24T02:16:42;17.90;99.90
16846;DHT22;8539;53.188;8.696;2023-07-24T02:19:08;17.90;99.90
16846;DHT22;8539;53.188;8.696;2023-07-24T02:21:34;17.90;99.90
16846;DHT22;8539;53.188;8.696;2023-07-24T02:24:00;17.90;99.90
16846;DHT22;8539;53.188;8.696;2023-07-24T02:26:26;17.90;99.90
16846;DHT22;8539;53.188;8.696;2023-07-24T02:28:52;17.90;99.90
16846;DHT22;8539;53.188;8.696;2023-07-24T02:31:19;18.00;99.90
16846;DHT22;8539;53.188;8.696;2023-07-24T02:33:46;18.00;99.90
16846;DHT22;8539;53.188;8.696;2023-07-24T02:36:12;18.00;99.90
16846;DHT22;8539;53.188;8.696;2023-07-24T02:38:38;18.00;99.90
16846;DHT22;8539;53.188;8.696;2023-07-24T02:41:04;18.00;99.90
16846;DHT22;8539;53.188;8.696;2023-07-24T02:43:30;18.00;99.90
16846;DHT22;8539;53.188;8.696;2023-07-24T02:46:00;18.00;99.90
16846;DHT22;8539;53.188;8.696;2023-07-24T02:48:27;18.00;99.90
16846;DHT22;8539;53.188;8.696;2023-07-24T02:50:53;18.00;99.90
16846;DHT22;8539;53.188;8.696;2023-07-24T02:53:20;18.10;99.90
16846;DHT22;8539;53.188;8.696;2023-07-24T02:55:46;18.10;99.90
16846;DHT22;8539;53.188;8.696;2023-07-24T02:58:13;18.10;99.90
16846;DHT22;8539;53.188;8.696;2023-07-24T03:00:40;18.00;99.90
16846;DHT22;8539;53.188;8.696;2023-07-24T03:03:06;18.10;99.90
16846;DHT22;8539;53.188;8.696;2023-07-24T03:05:34;18.00;99.90
16846;DHT22;8539;53.188;8.696;2023-07-24T03:08:01;18.00;99.90
16846;DHT22;8539;53.188;8.696;2023-07-24T03:10:27;18.00;99.90
16846;DHT22;8539;53.188;8.696;2023-07-24T03:12:53;18.00;99.90
16846;DHT22;8539;53.188;8.696;2023-07-24T03:15:19;17.90;99.90
16846;DHT22;8539;53.188;8.696;2023-07-24T03:17:47;17.90;99.90
16846;DHT22;8539;53.188;8.696;2023-07-24T03:20:18;17.90;99.90
16846;DHT22;8539;53.188;8.696;2023-07-24T03:22:44;17.80;99.90
16846;DHT22;8539;53.188;8.696;2023-07-24T03:25:10;17.80;99.90
16846;DHT22;8539;53.188;8.696;2023-07-24T03:27:36;17.80;99.90
16846;DHT22;8539;53.188;8.696;2023-07-24T03:30:03;17.70;99.90
16846;DHT22;8539;53.188;8.696;2023-07-24T03:32:29;17.70;99.90
16846;DHT22;8539;53.188;8.696;2023-07-24T03:34:55;17.60;99.90
16846;DHT22;8539;53.188;8.696;2023-07-24T03:37:21;17.60;99.90
16846;DHT22;8539;53.188;8.696;2023-07-24T03:39:47;17.50;99.90
16846;DHT22;8539;53.188;8.696;2023-07-24T03:42:28;17.40;99.90
16846;DHT22;8539;53.188;8.696;2023-07-24T03:44:55;17.40;99.90
16846;DHT22;8539;53.188;8.696;2023-07-24T03:47:21;17.30;99.90
16846;DHT22;8539;53.188;8.696;2023-07-24T03:49:47;17.30;99.90
16846;DHT22;8539;53.188;8.696;2023-07-24T03:52:13;17.20;99.90
16846;DHT22;8539;53.188;8.696;2023-07-24T03:54:39;17.20;99.90
16846;DHT22;8539;53.188;8.696;2023-07-24T03:57:05;17.20;99.90
16846;DHT22;8539;53.188;8.696;2023-07-24T03:59:32;17.10;99.90
16846;DHT22;8539;53.188;8.696;2023-07-24T04:01:58;17.10;99.90
16846;DHT22;8539;53.188;8.696;2023-07-24T04:04:25;17.10;99.90
16846;DHT22;8539;53.188;8.696;2023-07-24T04:06:52;17.10;99.90
16846;DHT22;8539;53.188;8.696;2023-07-24T04:09:18;17.10;99.90
16846;DHT22;8539;53.188;8.696;2023-07-24T04:11:44;17.10;99.90
16846;DHT22;8539;53.188;8.696;2023-07-24T04:14:10;17.10;99.90
16846;DHT22;8539;53.188;8.696;2023-07-24T04:16:37;17.10;99.90
16846;DHT22;8539;53.188;8.696;2023-07-24T04:19:04;17.10;99.90
16846;DHT22;8539;53.188;8.696;2023-07-24T04:21:31;17.20;99.90
16846;DHT22;8539;53.188;8.696;2023-07-24T04:23:57;17.20;99.90
16846;DHT22;8539;53.188;8.696;2023-07-24T04:26:23;17.20;99.90
16846;DHT22;8539;53.188;8.696;2023-07-24T04:28:49;17.20;99.90
16846;DHT22;8539;53.188;8.696;2023-07-24T04:31:16;17.20;99.90
16846;DHT22;8539;53.188;8.696;2023-07-24T04:33:42;17.20;99.90
16846;DHT22;8539;53.188;8.696;2023-07-24T04:36:08;17.30;99.90
16846;DHT22;8539;53.188;8.696;2023-07-24T04:38:34;17.30;99.90
16846;DHT22;8539;53.188;8.696;2023-07-24T04:41:01;17.30;99.90
16846;DHT22;8539;53.188;8.696;2023-07-24T04:43:28;17.40;99.90
16846;DHT22;8539;53.188;8.696;2023-07-24T04:45:54;17.40;99.90
16846;DHT22;8539;53.188;8.696;2023-07-24T04:48:20;17.40;99.90
16846;DHT22;8539;53.188;8.696;2023-07-24T04:50:46;17.50;99.90
16846;DHT22;8539;53.188;8.696;2023-07-24T04:53:12;17.50;99.90
16846;DHT22;8539;53.188;8.696;2023-07-24T04:55:38;17.60;99.90
16846;DHT22;8539;53.188;8.696;2023-07-24T04:58:04;17.60;99.90
16846;DHT22;8539;53.188;8.696;2023-07-24T05:00:31;17.60;99.90
16846;DHT22;8539;53.188;8.696;2023-07-24T05:02:57;17.60;99.90
16846;DHT22;8539;53.188;8.696;2023-07-24T05:05:23;17.60;99.90
16846;DHT22;8539;53.188;8.696;2023-07-24T05:07:48;17.70;99.90
16846;DHT22;8539;53.188;8.696;2023-07-24T05:10:15;17.70;99.90
16846;DHT22;8539;53.188;8.696;2023-07-24T05:12:41;17.70;99.90
16846;DHT22;8539;53.188;8.696;2023-07-24T05:15:08;17.70;99.90
16846;DHT22;8539;53.188;8.696;2023-07-24T05:17:34;17.70;99.90
16846;DHT22;8539;53.188;8.696;2023-07-24T05:20:00;17.70;99.90
16846;DHT22;8539;53.188;8.696;2023-07-24T05:22:26;17.70;99.90
16846;DHT22;8539;53.188;8.696;2023-07-24T05:24:52;17.70;99.90
16846;DHT22;8539;53.188;8.696;2023-07-24T05:27:19;17.70;99.90
16846;DHT22;8539;53.188;8.696;2023-07-24T05:29:45;17.70;99.90
16846;DHT22;8539;53.188;8.696;2023-07-24T05:32:11;17.70;99.90
16846;DHT22;8539;53.188;8.696;2023-07-24T05:34:37;17.70;99.90
16846;DHT22;8539;53.188;8.696;2023-07-24T05:37:03;16.70;99.90
16846;DHT22;8539;53.188;8.696;2023-07-24T05:39:30;17.70;99.90
16846;DHT22;8539;53.188;8.696;2023-07-24T05:41:56;17.80;99.90
16846;DHT22;8539;53.188;8.696;2023-07-24T05:44:22;17.80;99.90
16846;DHT22;8539;53.188;8.696;2023-07-24T05:46:48;17.80;99.90
16846;DHT22;8539;53.188;8.696;2023-07-24T05:49:14;17.80;99.90
16846;DHT22;8539;53.188;8.696;2023-07-24T05:51:40;17.80;99.90
16846;DHT22;8539;53.188;8.696;2023-07-24T05:54:06;17.80;99.90
16846;DHT22;8539;53.188;8.696;2023-07-24T05:56:32;17.90;99.90
16846;DHT22;8539;53.188;8.696;2023-07-24T05:58:58;17.90;99.90
16846;DHT22;8539;53.188;8.696;2023-07-24T06:01:24;17.90;99.90
16846;DHT22;8539;53.188;8.696;2023-07-24T06:03:52;17.90;99.90
16846;DHT22;8539;53.188;8.696;2023-07-24T06:06:18;17.90;99.90
16846;DHT22;8539;53.188;8.696;2023-07-24T06:08:45;17.90;99.90
16846;DHT22;8539;53.188;8.696;2023-07-24T06:11:13;17.90;99.90
16846;DHT22;8539;53.188;8.696;2023-07-24T06:13:39;17.90;99.90
16846;DHT22;8539;53.188;8.696;2023-07-24T06:16:05;17.90;99.90
16846;DHT22;8539;53.188;8.696;2023-07-24T06:18:34;17.90;99.90
16846;DHT22;8539;53.188;8.696;2023-07-24T06:21:00;18.00;99.90
16846;DHT22;8539;53.188;8.696;2023-07-24T06:23:26;18.00;99.90
16846;DHT22;8539;53.188;8.696;2023-07-24T06:25:52;18.00;99.90
16846;DHT22;8539;53.188;8.696;2023-07-24T06:28:19;18.00;99.90
16846;DHT22;8539;53.188;8.696;2023-07-24T06:30:46;18.00;99.90
16846;DHT22;8539;53.188;8.696;2023-07-24T06:33:12;18.00;99.90
16846;DHT22;8539;53.188;8.696;2023-07-24T06:35:38;18.00;99.90
16846;DHT22;8539;53.188;8.696;2023-07-24T06:38:04;18.00;99.90
16846;DHT22;8539;53.188;8.696;2023-07-24T06:40:30;18.10;99.90
16846;DHT22;8539;53.188;8.696;2023-07-24T06:42:56;18.00;99.90
16846;DHT22;8539;53.188;8.696;2023-07-24T06:45:22;18.10;99.90
16846;DHT22;8539;53.188;8.696;2023-07-24T06:47:48;18.10;99.90
16846;DHT22;8539;53.188;8.696;2023-07-24T06:50:17;18.10;99.90
16846;DHT22;8539;53.188;8.696;2023-07-24T06:52:43;18.10;99.90
16846;DHT22;8539;53.188;8.696;2023-07-24T06:55:09;18.10;99.90
16846;DHT22;8539;53.188;8.696;2023-07-24T06:57:35;18.10;99.90
16846;DHT22;8539;53.188;8.696;2023-07-24T07:00:02;18.10;99.90
16846;DHT22;8539;53.188;8.696;2023-07-24T07:02:28;18.10;99.90
16846;DHT22;8539;53.188;8.696;2023-07-24T07:04:54;18.10;99.90
16846;DHT22;8539;53.188;8.696;2023-07-24T07:07:20;18.10;99.90
16846;DHT22;8539;53.188;8.696;2023-07-24T07:09:46;18.10;99.90
16846;DHT22;8539;53.188;8.696;2023-07-24T07:12:12;18.10;99.90
16846;DHT22;8539;53.188;8.696;2023-07-24T07:14:38;18.10;99.90
16846;DHT22;8539;53.188;8.696;2023-07-24T07:17:04;18.10;99.90
16846;DHT22;8539;53.188;8.696;2023-07-24T07:19:31;18.10;99.90
16846;DHT22;8539;53.188;8.696;2023-07-24T07:21:57;18.10;99.90
16846;DHT22;8539;53.188;8.696;2023-07-24T07:24:23;18.10;99.90
16846;DHT22;8539;53.188;8.696;2023-07-24T07:26:50;18.20;99.90
16846;DHT22;8539;53.188;8.696;2023-07-24T07:29:16;18.20;99.90
16846;DHT22;8539;53.188;8.696;2023-07-24T07:31:43;18.20;99.90
16846;DHT22;8539;53.188;8.696;2023-07-24T07:34:09;18.20;99.90
16846;DHT22;8539;53.188;8.696;2023-07-24T07:36:36;18.20;99.90
16846;DHT22;8539;53.188;8.696;2023-07-24T07:39:02;18.20;99.90
16846;DHT22;8539;53.188;8.696;2023-07-24T07:41:28;18.20;99.90
16846;DHT22;8539;53.188;8.696;2023-07-24T07:43:54;18.20;99.90
16846;DHT22;8539;53.188;8.696;2023-07-24T07:46:20;18.30;99.90
16846;DHT22;8539;53.188;8.696;2023-07-24T07:48:47;18.30;99.90
16846;DHT22;8539;53.188;8.696;2023-07-24T07:51:15;18.30;99.90
16846;DHT22;8539;53.188;8.696;2023-07-24T07:53:41;18.40;99.90
16846;DHT22;8539;53.188;8.696;2023-07-24T07:56:07;18.40;99.90
16846;DHT22;8539;53.188;8.696;2023-07-24T07:58:34;18.40;99.90
16846;DHT22;8539;53.188;8.696;2023-07-24T08:01:04;18.50;99.90
16846;DHT22;8539;53.188;8.696;2023-07-24T08:03:31;18.50;99.90
16846;DHT22;8539;53.188;8.696;2023-07-24T08:05:57;18.50;99.90
16846;DHT22;8539;53.188;8.696;2023-07-24T08:08:24;18.50;99.90
16846;DHT22;8539;53.188;8.696;2023-07-24T08:10:50;18.50;99.90
16846;DHT22;8539;53.188;8.696;2023-07-24T08:13:17;18.60;99.90
16846;DHT22;8539;53.188;8.696;2023-07-24T08:15:43;18.70;99.90
16846;DHT22;8539;53.188;8.696;2023-07-24T08:18:09;18.80;99.90
16846;DHT22;8539;53.188;8.696;2023-07-24T08:20:36;18.80;99.90
16846;DHT22;8539;53.188;8.696;2023-07-24T08:23:03;18.80;99.90
16846;DHT22;8539;53.188;8.696;2023-07-24T08:25:29;18.90;99.90
16846;DHT22;8539;53.188;8.696;2023-07-24T08:27:55;18.80;99.90
16846;DHT22;8539;53.188;8.696;2023-07-24T08:30:22;18.90;99.90
16846;DHT22;8539;53.188;8.696;2023-07-24T08:32:48;18.80;99.90
16846;DHT22;8539;53.188;8.696;2023-07-24T08:35:17;18.80;99.90
16846;DHT22;8539;53.188;8.696;2023-07-24T08:37:43;18.80;99.90
16846;DHT22;8539;53.188;8.696;2023-07-24T08:40:12;18.80;99.90
16846;DHT22;8539;53.188;8.696;2023-07-24T08:42:39;18.80;99.90
16846;DHT22;8539;53.188;8.696;2023-07-24T08:45:13;18.90;99.90
16846;DHT22;8539;53.188;8.696;2023-07-24T08:47:45;18.90;99.90
16846;DHT22;8539;53.188;8.696;2023-07-24T08:50:12;18.90;99.90
16846;DHT22;8539;53.188;8.696;2023-07-24T08:52:39;18.90;99.90
16846;DHT22;8539;53.188;8.696;2023-07-24T08:55:05;18.90;99.90
16846;DHT22;8539;53.188;8.696;2023-07-24T08:57:32;18.90;99.90
16846;DHT22;8539;53.188;8.696;2023-07-24T08:59:58;18.90;99.90
16846;DHT22;8539;53.188;8.696;2023-07-24T09:02:26;18.90;99.90
16846;DHT22;8539;53.188;8.696;2023-07-24T09:04:52;18.90;99.90
16846;DHT22;8539;53.188;8.696;2023-07-24T09:07:18;19.00;99.90
16846;DHT22;8539;53.188;8.696;2023-07-24T09:09:47;19.00;99.90
16846;DHT22;8539;53.188;8.696;2023-07-24T09:12:15;19.10;99.90
16846;DHT22;8539;53.188;8.696;2023-07-24T09:14:42;19.20;99.90
16846;DHT22;8539;53.188;8.696;2023-07-24T09:17:09;19.20;99.90
16846;DHT22;8539;53.188;8.696;2023-07-24T09:19:36;19.20;99.90
16846;DHT22;8539;53.188;8.696;2023-07-24T09:22:13;19.30;99.90
16846;DHT22;8539;53.188;8.696;2023-07-24T09:24:58;19.30;99.90
16846;DHT22;8539;53.188;8.696;2023-07-24T09:27:29;19.30;99.90
16846;DHT22;8539;53.188;8.696;2023-07-24T09:29:56;19.30;99.90
16846;DHT22;8539;53.188;8.696;2023-07-24T09:32:27;19.50;99.90
16846;DHT22;8539;53.188;8.696;2023-07-24T09:34:53;19.50;99.90
16846;DHT22;8539;53.188;8.696;2023-07-24T09:37:36;19.60;99.90
16846;DHT22;8539;53.188;8.696;2023-07-24T09:40:06;19.70;99.90
16846;DHT22;8539;53.188;8.696;2023-07-24T09:42:33;20.00;99.90
16846;DHT22;8539;53.188;8.696;2023-07-24T09:45:04;20.30;99.90
16846;DHT22;8539;53.188;8.696;2023-07-24T09:47:31;20.60;99.90
16846;DHT22;8539;53.188;8.696;2023-07-24T09:50:03;20.80;99.90
16846;DHT22;8539;53.188;8.696;2023-07-24T09:52:30;21.00;99.90
16846;DHT22;8539;53.188;8.696;2023-07-24T09:55:30;21.10;99.90
16846;DHT22;8539;53.188;8.696;2023-07-24T09:58:01;21.10;99.90
16846;DHT22;8539;53.188;8.696;2023-07-24T10:00:35;21.00;99.90
16846;DHT22;8539;53.188;8.696;2023-07-24T10:03:16;21.00;99.90
16846;DHT22;8539;53.188;8.696;2023-07-24T10:05:44;21.10;99.90
16846;DHT22;8539;53.188;8.696;2023-07-24T10:08:11;21.20;99.90
16846;DHT22;8539;53.188;8.696;2023-07-24T10:10:39;21.20;99.90
16846;DHT22;8539;53.188;8.696;2023-07-24T10:13:06;21.20;99.90
16846;DHT22;8539;53.188;8.696;2023-07-24T10:15:32;21.20;99.90
16846;DHT22;8539;53.188;8.696;2023-07-24T10:18:06;21.10;99.90
16846;DHT22;8539;53.188;8.696;2023-07-24T10:20:42;21.00;99.90
16846;DHT22;8539;53.188;8.696;2023-07-24T10:25:40;21.20;99.90
16846;DHT22;8539;53.188;8.696;2023-07-24T10:28:11;21.40;99.90
16846;DHT22;8539;53.188;8.696;2023-07-24T10:30:40;21.60;99.90
16846;DHT22;8539;53.188;8.696;2023-07-24T10:33:10;21.80;99.90
16846;DHT22;8539;53.188;8.696;2023-07-24T10:35:44;21.90;99.90
16846;DHT22;8539;53.188;8.696;2023-07-24T10:38:13;22.10;99.90
16846;DHT22;8539;53.188;8.696;2023-07-24T10:40:40;22.30;99.90
16846;DHT22;8539;53.188;8.696;2023-07-24T10:43:09;22.50;99.90
16846;DHT22;8539;53.188;8.696;2023-07-24T10:45:54;22.60;99.90
16846;DHT22;8539;53.188;8.696;2023-07-24T10:48:25;22.90;99.90
16846;DHT22;8539;53.188;8.696;2023-07-24T10:50:52;23.10;99.90
16846;DHT22;8539;53.188;8.696;2023-07-24T10:53:20;23.20;99.90
16846;DHT22;8539;53.188;8.696;2023-07-24T10:55:47;23.10;99.90
16846;DHT22;8539;53.188;8.696;2023-07-24T10:58:14;22.90;99.90
16846;DHT22;8539;53.188;8.696;2023-07-24T11:00:41;22.60;99.90
16846;DHT22;8539;53.188;8.696;2023-07-24T11:03:13;22.50;99.90
16846;DHT22;8539;53.188;8.696;2023-07-24T11:05:43;22.30;99.90
16846;DHT22;8539;53.188;8.696;2023-07-24T11:08:17;22.20;99.90
16846;DHT22;8539;53.188;8.696;2023-07-24T11:10:56;22.00;99.90
16846;DHT22;8539;53.188;8.696;2023-07-24T11:13:25;22.00;99.90
16846;DHT22;8539;53.188;8.696;2023-07-24T11:15:52;22.00;99.90
16846;DHT22;8539;53.188;8.696;2023-07-24T11:18:19;22.10;99.90
16846;DHT22;8539;53.188;8.696;2023-07-24T11:20:53;22.20;99.90
16846;DHT22;8539;53.188;8.696;2023-07-24T11:23:23;22.40;99.90
16846;DHT22;8539;53.188;8.696;2023-07-24T11:25:53;22.60;99.90
16846;DHT22;8539;53.188;8.696;2023-07-24T11:28:22;22.60;99.90
16846;DHT22;8539;53.188;8.696;2023-07-24T11:31:02;22.60;99.90
16846;DHT22;8539;53.188;8.696;2023-07-24T11:33:28;22.60;99.90
16846;DHT22;8539;53.188;8.696;2023-07-24T11:35:55;22.80;99.90
16846;DHT22;8539;53.188;8.696;2023-07-24T11:38:26;22.90;99.90
16846;DHT22;8539;53.188;8.696;2023-07-24T11:40:54;23.00;99.90
16846;DHT22;8539;53.188;8.696;2023-07-24T11:43:47;23.20;99.90
16846;DHT22;8539;53.188;8.696;2023-07-24T11:46:26;23.40;99.90
16846;DHT22;8539;53.188;8.696;2023-07-24T11:49:17;23.40;99.90
16846;DHT22;8539;53.188;8.696;2023-07-24T11:51:45;23.50;99.90
16846;DHT22;8539;53.188;8.696;2023-07-24T11:54:11;23.60;99.90
16846;DHT22;8539;53.188;8.696;2023-07-24T11:56:37;23.60;99.90
16846;DHT22;8539;53.188;8.696;2023-07-24T12:04:40;23.30;99.90
16846;DHT22;8539;53.188;8.696;2023-07-24T12:07:09;23.30;99.90
16846;DHT22;8539;53.188;8.696;2023-07-24T12:09:36;23.40;99.90
16846;DHT22;8539;53.188;8.696;2023-07-24T12:12:04;23.50;99.90
16846;DHT22;8539;53.188;8.696;2023-07-24T12:14:33;23.60;99.90
16846;DHT22;8539;53.188;8.696;2023-07-24T12:17:02;23.70;99.90
16846;DHT22;8539;53.188;8.696;2023-07-24T12:19:29;23.60;99.90
16846;DHT22;8539;53.188;8.696;2023-07-24T12:21:55;23.60;99.90
16846;DHT22;8539;53.188;8.696;2023-07-24T12:24:21;23.50;99.90
16846;DHT22;8539;53.188;8.696;2023-07-24T12:26:47;23.50;99.90
16846;DHT22;8539;53.188;8.696;2023-07-24T12:29:13;23.50;99.90
16846;DHT22;8539;53.188;8.696;2023-07-24T12:31:39;23.50;99.90
16846;DHT22;8539;53.188;8.696;2023-07-24T12:34:06;23.50;99.90
16846;DHT22;8539;53.188;8.696;2023-07-24T12:36:33;23.60;99.90
16846;DHT22;8539;53.188;8.696;2023-07-24T12:38:59;23.70;99.90
16846;DHT22;8539;53.188;8.696;2023-07-24T12:41:25;23.80;99.90
16846;DHT22;8539;53.188;8.696;2023-07-24T12:43:51;23.90;99.90
16846;DHT22;8539;53.188;8.696;2023-07-24T12:46:17;23.90;99.90
16846;DHT22;8539;53.188;8.696;2023-07-24T12:48:43;23.90;99.90
16846;DHT22;8539;53.188;8.696;2023-07-24T12:51:10;24.00;99.90
16846;DHT22;8539;53.188;8.696;2023-07-24T12:53:39;24.00;99.90
16846;DHT22;8539;53.188;8.696;2023-07-24T12:56:06;24.00;99.90
16846;DHT22;8539;53.188;8.696;2023-07-24T12:58:32;24.00;99.90
16846;DHT22;8539;53.188;8.696;2023-07-24T13:00:58;24.10;99.90
16846;DHT22;8539;53.188;8.696;2023-07-24T13:03:24;24.20;99.90
16846;DHT22;8539;53.188;8.696;2023-07-24T13:05:51;24.30;99.90
16846;DHT22;8539;53.188;8.696;2023-07-24T13:08:17;24.30;99.90
16846;DHT22;8539;53.188;8.696;2023-07-24T13:10:48;24.40;99.90
16846;DHT22;8539;53.188;8.696;2023-07-24T13:13:15;24.40;99.90
16846;DHT22;8539;53.188;8.696;2023-07-24T13:15:41;24.30;99.90
16846;DHT22;8539;53.188;8.696;2023-07-24T13:18:07;24.30;99.90
16846;DHT22;8539;53.188;8.696;2023-07-24T13:20:34;24.20;99.90
16846;DHT22;8539;53.188;8.696;2023-07-24T13:23:00;24.20;99.90
16846;DHT22;8539;53.188;8.696;2023-07-24T13:25:26;24.20;99.90
16846;DHT22;8539;53.188;8.696;2023-07-24T13:27:52;24.20;99.90
16846;DHT22;8539;53.188;8.696;2023-07-24T13:30:18;24.20;99.90
16846;DHT22;8539;53.188;8.696;2023-07-24T13:32:45;24.20;99.90
16846;DHT22;8539;53.188;8.696;2023-07-24T13:35:11;24.10;99.90
16846;DHT22;8539;53.188;8.696;2023-07-24T13:37:38;24.20;99.90
16846;DHT22;8539;53.188;8.696;2023-07-24T13:40:04;24.20;99.90
16846;DHT22;8539;53.188;8.696;2023-07-24T13:42:30;24.20;99.90
16846;DHT22;8539;53.188;8.696;2023-07-24T13:44:56;24.10;99.90
16846;DHT22;8539;53.188;8.696;2023-07-24T13:47:22;24.00;99.90
16846;DHT22;8539;53.188;8.696;2023-07-24T13:49:49;23.90;99.90
16846;DHT22;8539;53.188;8.696;2023-07-24T13:52:15;23.70;99.90
16846;DHT22;8539;53.188;8.696;2023-07-24T13:54:41;23.50;99.90
16846;DHT22;8539;53.188;8.696;2023-07-24T13:57:08;23.40;99.90
16846;DHT22;8539;53.188;8.696;2023-07-24T13:59:37;23.30;99.90
16846;DHT22;8539;53.188;8.696;2023-07-24T14:02:06;23.20;99.90
16846;DHT22;8539;53.188;8.696;2023-07-24T14:04:32;23.10;99.90
16846;DHT22;8539;53.188;8.696;2023-07-24T14:06:58;23.10;99.90
16846;DHT22;8539;53.188;8.696;2023-07-24T14:09:25;23.10;99.90
16846;DHT22;8539;53.188;8.696;2023-07-24T14:11:52;23.20;99.90
16846;DHT22;8539;53.188;8.696;2023-07-24T14:14:18;23.40;99.90
16846;DHT22;8539;53.188;8.696;2023-07-24T14:16:44;23.50;99.90
16846;DHT22;8539;53.188;8.696;2023-07-24T14:19:10;23.60;99.90
16846;DHT22;8539;53.188;8.696;2023-07-24T14:21:36;23.70;99.90
16846;DHT22;8539;53.188;8.696;2023-07-24T14:24:03;23.70;99.90
16846;DHT22;8539;53.188;8.696;2023-07-24T14:26:29;23.70;99.90
16846;DHT22;8539;53.188;8.696;2023-07-24T14:28:55;23.70;99.90
16846;DHT22;8539;53.188;8.696;2023-07-24T14:31:21;23.60;99.90
16846;DHT22;8539;53.188;8.696;2023-07-24T14:33:47;23.60;99.90
16846;DHT22;8539;53.188;8.696;2023-07-24T14:36:14;23.50;99.90
16846;DHT22;8539;53.188;8.696;2023-07-24T14:38:42;23.50;99.90
16846;DHT22;8539;53.188;8.696;2023-07-24T14:41:08;23.40;99.90
16846;DHT22;8539;53.188;8.696;2023-07-24T14:43:34;23.40;99.90
16846;DHT22;8539;53.188;8.696;2023-07-24T14:46:00;23.40;99.90
16846;DHT22;8539;53.188;8.696;2023-07-24T14:48:26;23.40;99.90
16846;DHT22;8539;53.188;8.696;2023-07-24T14:53:17;23.40;99.90
16846;DHT22;8539;53.188;8.696;2023-07-24T14:55:44;23.40;99.90
16846;DHT22;8539;53.188;8.696;2023-07-24T14:58:10;23.50;99.90
16846;DHT22;8539;53.188;8.696;2023-07-24T15:00:36;23.50;99.90
16846;DHT22;8539;53.188;8.696;2023-07-24T15:03:02;23.60;99.90
16846;DHT22;8539;53.188;8.696;2023-07-24T15:05:28;23.40;99.90
16846;DHT22;8539;53.188;8.696;2023-07-24T15:07:54;23.20;99.90
16846;DHT22;8539;53.188;8.696;2023-07-24T15:10:20;22.90;99.90
16846;DHT22;8539;53.188;8.696;2023-07-24T15:12:47;22.60;99.90
16846;DHT22;8539;53.188;8.696;2023-07-24T15:15:13;22.30;99.90
16846;DHT22;8539;53.188;8.696;2023-07-24T15:17:39;22.00;99.90
16846;DHT22;8539;53.188;8.696;2023-07-24T15:20:06;21.70;99.90
16846;DHT22;8539;53.188;8.696;2023-07-24T15:22:34;21.50;99.90
16846;DHT22;8539;53.188;8.696;2023-07-24T15:25:01;21.30;99.90
16846;DHT22;8539;53.188;8.696;2023-07-24T15:27:30;21.30;99.90
16846;DHT22;8539;53.188;8.696;2023-07-24T15:29:56;21.30;99.90
16846;DHT22;8539;53.188;8.696;2023-07-24T15:32:22;21.20;99.90
16846;DHT22;8539;53.188;8.696;2023-07-24T15:34:49;21.10;99.90
16846;DHT22;8539;53.188;8.696;2023-07-24T15:37:15;21.00;99.90
16846;DHT22;8539;53.188;8.696;2023-07-24T15:39:41;20.90;99.90
16846;DHT22;8539;53.188;8.696;2023-07-24T15:42:07;20.70;99.90
16846;DHT22;8539;53.188;8.696;2023-07-24T15:44:33;20.60;99.90
16846;DHT22;8539;53.188;8.696;2023-07-24T15:47:00;20.50;99.90
16846;DHT22;8539;53.188;8.696;2023-07-24T15:49:26;20.30;99.90
16846;DHT22;8539;53.188;8.696;2023-07-24T15:51:52;20.20;99.90
16846;DHT22;8539;53.188;8.696;2023-07-24T15:54:18;20.10;99.90
16846;DHT22;8539;53.188;8.696;2023-07-24T15:56:44;20.00;99.90
16846;DHT22;8539;53.188;8.696;2023-07-24T15:59:10;19.90;99.90